Time;durP1;ratioP1;P1;durP2;ratioP2;P2;SDS_P1;SDS_P2;PMS_P1;PMS_P2;Temp;Humidity;BMP_temperature;BMP_pressure;BME280_temperature;BME280_humidity;BME280_pressure;Samples;Min_cycle;Max_cycle;Signal;HPM_P1;HPM_P2
2024/04/10 00:00:01;;;;;;;;;;;;;;;;;;5469826;26;20063;-83
2024/04/10 00:02:29;;;;;;;;;;;;;;;;;;5468622;26;19998;-83
2024/04/10 00:04:56;;;;;;;;;;;;;;;;;;5468212;26;20060;-84
2024/04/10 00:07:24;;;;;;;;;;;;;;;;;;5467343;26;20042;-83
2024/04/10 00:09:50;;;;;;;;;;;;;;;;;;5471341;26;20055;-85
2024/04/10 00:12:19;;;;;;;;;;;;;;;;;;5470250;26;20002;-82
2024/04/10 00:14:45;;;;;;;;;;;;;;;;;;5459880;26;20060;-82
2024/04/10 00:17:14;;;;;;;;;;;;;;;;;;5467152;26;20002;-85
2024/04/10 00:19:40;;;;;;;;;;;;;;;;;;5454718;26;19994;-83
2024/04/10 00:22:09;;;;;;;;;;;;;;;;;;5465780;26;20439;-83
2024/04/10 00:24:35;;;;;;;;;;;;;;;;;;5468179;26;20015;-82
2024/04/10 00:27:03;;;;;;;;;;;;;;;;;;5466608;26;20643;-83
2024/04/10 00:29:29;;;;;;;;;;;;;;;;;;5468977;26;19994;-84
2024/04/10 00:31:59;;;;;;;;;;;;;;;;;;5468787;26;20020;-85
2024/04/10 00:34:24;;;;;;;;;;;;;;;;;;5468120;26;20060;-83
2024/04/10 00:36:53;;;;;;;;;;;;;;;;;;5472447;26;19994;-83
2024/04/10 00:39:19;;;;;;;;;;;;;;;;;;5468992;26;20017;-83
2024/04/10 00:41:48;;;;;;;;;;;;;;;;;;5466986;26;20042;-84
2024/04/10 00:44:14;;;;;;;;;;;;;;;;;;5468281;26;20007;-83
2024/04/10 00:46:42;;;;;;;;;;;;;;;;;;5466827;26;20012;-83
2024/04/10 00:49:08;;;;;;;;;;;;;;;;;;5467351;26;20021;-83
2024/04/10 00:51:37;;;;;;;;;;;;;;;;;;5468020;26;20002;-83
2024/04/10 00:54:03;;;;;;;;;;;;;;;;;;5468456;26;19994;-82
2024/04/10 00:56:31;;;;;;;;;;;;;;;;;;5467559;26;20486;-83
2024/04/10 00:58:57;;;;;;;;;;;;;;;;;;5467218;26;20056;-81
2024/04/10 01:01:26;;;;;;;;;;;;;;;;;;5465815;26;20002;-83
2024/04/10 01:03:52;;;;;;;;;;;;;;;;;;5465687;26;20002;-83
2024/04/10 01:06:20;;;;;;;;;;;;;;;;;;5464019;26;20071;-84
2024/04/10 01:08:46;;;;;;;;;;;;;;;;;;5463008;26;20002;-82
2024/04/10 01:11:15;;;;;;;;;;;;;;;;;;5451609;26;20025;-83
2024/04/10 01:13:41;;;;;;;;;;;;;;;;;;5465487;26;20059;-85
2024/04/10 01:16:09;;;;;;;;;;;;;;;;;;5458766;26;19998;-84
2024/04/10 01:18:35;;;;;;;;;;;;;;;;;;5464999;26;20021;-83
2024/04/10 01:21:04;;;;;;;;;;;;;;;;;;5465455;26;19994;-85
2024/04/10 01:23:30;;;;;;;;;;;;;;;;;;5465911;26;20007;-84
2024/04/10 01:25:58;;;;;;;;;;;;;;;;;;5466138;26;20020;-83
2024/04/10 01:28:24;;;;;;;;;;;;;;;;;;5465554;26;19998;-82
2024/04/10 01:30:53;;;;;;;;;;;;;;;;;;5464658;26;20497;-82
2024/04/10 01:33:19;;;;;;;;;;;;;;;;;;5464464;26;19995;-83
2024/04/10 01:35:48;;;;;;;;;;;;;;;;;;5465198;26;20024;-82
2024/04/10 01:38:14;;;;;;;;;;;;;;;;;;5462097;26;19991;-81
2024/04/10 01:40:42;;;;;;;;;;;;;;;;;;5463717;26;19998;-82
2024/04/10 01:43:08;;;;;;;;;;;;;;;;;;5464319;26;20002;-82
2024/04/10 01:45:38;;;;;;;;;;;;;;;;;;5464090;26;19998;-82
2024/04/10 01:48:04;;;;;;;;;;;;;;;;;;5463489;26;19998;-85
2024/04/10 01:50:33;;;;;;;;;;;;;;;;;;5461840;26;19998;-83
2024/04/10 01:52:59;;;;;;;;;;;;;;;;;;5462761;26;20020;-83
2024/04/10 01:55:27;;;;;;;;;;;;;;;;;;5462614;26;19994;-83
2024/04/10 01:57:53;;;;;;;;;;;;;;;;;;5461606;26;20088;-83
2024/04/10 02:00:24;;;;;;;;;;;;;;;;;;5461032;26;20459;-83
2024/04/10 02:02:50;;;;;;;;;;;;;;;;;;5462460;26;19998;-83
2024/04/10 02:05:19;;;;;;;;;;;;;;;;;;5456717;26;20023;-82
2024/04/10 02:07:45;;;;;;;;;;;;;;;;;;5454328;26;19994;-83
2024/04/10 02:10:13;;;;;;;;;;;;;;;;;;5463112;26;20021;-84
2024/04/10 02:12:39;;;;;;;;;;;;;;;;;;5462193;26;20010;-83
2024/04/10 02:15:08;;;;;;;;;;;;;;;;;;5460708;26;20021;-83
2024/04/10 02:17:34;;;;;;;;;;;;;;;;;;5460566;26;20079;-82
2024/04/10 02:20:03;;;;;;;;;;;;;;;;;;5462047;26;20002;-83
2024/04/10 02:22:29;;;;;;;;;;;;;;;;;;5462216;26;20022;-84
2024/04/10 02:24:57;;;;;;;;;;;;;;;;;;5453641;26;20072;-81
2024/04/10 02:27:23;;;;;;;;;;;;;;;;;;5464027;26;20020;-82
2024/04/10 02:29:52;;;;;;;;;;;;;;;;;;5462537;26;19998;-83
2024/04/10 02:32:18;;;;;;;;;;;;;;;;;;5460432;26;19999;-80
2024/04/10 02:34:47;;;;;;;;;;;;;;;;;;5463286;26;20087;-82
2024/04/10 02:37:13;;;;;;;;;;;;;;;;;;5458214;26;20021;-83
2024/04/10 02:39:42;;;;;;;;;;;;;;;;;;5461286;26;20006;-83
2024/04/10 02:42:08;;;;;;;;;;;;;;;;;;5460959;26;20462;-83
2024/04/10 02:44:37;;;;;;;;;;;;;;;;;;5462214;26;20043;-82
2024/04/10 02:47:03;;;;;;;;;;;;;;;;;;5460120;26;20006;-83
2024/04/10 02:49:32;;;;;;;;;;;;;;;;;;5462303;26;19994;-82
2024/04/10 02:51:58;;;;;;;;;;;;;;;;;;5461733;26;20021;-81
2024/04/10 02:54:26;;;;;;;;;;;;;;;;;;5462883;26;20003;-83
2024/04/10 02:56:52;;;;;;;;;;;;;;;;;;5463766;26;20002;-84
2024/04/10 02:59:21;;;;;;;;;;;;;;;;;;5463520;26;19998;-83
2024/04/10 03:01:47;;;;;;;;;;;;;;;;;;5462365;26;20078;-81
2024/04/10 03:04:15;;;;;;;;;;;;;;;;;;5463701;26;19998;-83
2024/04/10 03:06:42;;;;;;;;;;;;;;;;;;5462960;26;20079;-81
2024/04/10 03:09:10;;;;;;;;;;;;;;;;;;5461503;26;20025;-83
2024/04/10 03:11:36;;;;;;;;;;;;;;;;;;5462175;26;20021;-82
2024/04/10 03:14:05;;;;;;;;;;;;;;;;;;5463898;26;20002;-81
2024/04/10 03:16:31;;;;;;;;;;;;;;;;;;5463859;26;19994;-81
2024/04/10 03:19:00;;;;;;;;;;;;;;;;;;5462759;26;20020;-82
2024/04/10 03:21:26;;;;;;;;;;;;;;;;;;5462228;26;20006;-83
2024/04/10 03:23:55;;;;;;;;;;;;;;;;;;5463240;26;20017;-82
2024/04/10 03:26:21;;;;;;;;;;;;;;;;;;5463590;26;20237;-83
2024/04/10 03:28:49;;;;;;;;;;;;;;;;;;5461291;26;20006;-80
2024/04/10 03:31:15;;;;;;;;;;;;;;;;;;5461471;26;20091;-83
2024/04/10 03:33:44;;;;;;;;;;;;;;;;;;5462277;26;20546;-83
2024/04/10 03:36:10;;;;;;;;;;;;;;;;;;5462055;26;20025;-82
2024/04/10 03:38:38;;;;;;;;;;;;;;;;;;5463249;26;19995;-83
2024/04/10 03:41:04;;;;;;;;;;;;;;;;;;5463464;26;20006;-82
2024/04/10 03:43:33;;;;;;;;;;;;;;;;;;5447583;26;19998;-82
2024/04/10 03:46:02;;;;;;;;;;;;;;;;;;5461855;26;20087;-81
2024/04/10 03:48:30;;;;;;;;;;;;;;;;;;5459886;26;20426;-83
2024/04/10 03:50:59;;;;;;;;;;;;;;;;;;5462193;26;20056;-82
2024/04/10 03:53:25;;;;;;;;;;;;;;;;;;5456030;26;19999;-81
2024/04/10 03:55:53;;;;;;;;;;;;;;;;;;5456055;26;20078;-82
2024/04/10 03:58:19;;;;;;;;;;;;;;;;;;5459951;26;20006;-81
2024/04/10 04:00:48;;;;;;;;;;;;;;;;;;5456794;26;20055;-82
2024/04/10 04:03:14;;;;;;;;;;;;;;;;;;5462152;26;20060;-82
2024/04/10 04:05:42;;;;;;;;;;;;;;;;;;5461918;26;20006;-82
2024/04/10 04:08:08;;;;;;;;;;;;;;;;;;5461375;26;20082;-84
2024/04/10 04:10:37;;;;;;;;;;;;;;;;;;5461788;26;20002;-83
2024/04/10 04:13:06;;;;;;;;;;;;;;;;;;5462311;26;19998;-82
2024/04/10 04:15:33;;;;;;;;;;;;;;;;;;5452079;26;19998;-81
2024/04/10 04:18:02;;;;;;;;;;;;;;;;;;5461672;26;20010;-83
2024/04/10 04:20:28;;;;;;;;;;;;;;;;;;5462026;26;19999;-83
2024/04/10 04:22:56;;;;;;;;;;;;;;;;;;5463768;26;19994;-83
2024/04/10 04:25:22;;;;;;;;;;;;;;;;;;5469141;26;20013;-80
2024/04/10 04:27:51;;;;;;;;;;;;;;;;;;5461437;26;19986;-84
2024/04/10 04:30:17;;;;;;;;;;;;;;;;;;5457924;26;20039;-82
2024/04/10 04:32:45;;;;;;;;;;;;;;;;;;5450605;26;19999;-84
2024/04/10 04:35:11;;;;;;;;;;;;;;;;;;5440087;26;20052;-83
2024/04/10 04:37:40;;;;;;;;;;;;;;;;;;5466068;26;20006;-82
2024/04/10 04:40:06;;;;;;;;;;;;;;;;;;5470713;26;20017;-82
2024/04/10 04:42:35;;;;;;;;;;;;;;;;;;5453331;26;20006;-80
2024/04/10 04:45:00;;;;;;;;;;;;;;;;;;5465209;26;20017;-83
2024/04/10 04:47:30;;;;;;;;;;;;;;;;;;5465328;26;20006;-84
2024/04/10 04:49:57;;;;;;;;;;;;;;;;;;5467193;26;20020;-85
2024/04/10 04:52:26;;;;;;;;;;;;;;;;;;5466952;26;19994;-83
2024/04/10 04:54:52;;;;;;;;;;;;;;;;;;5461256;26;20002;-82
2024/04/10 04:57:21;;;;;;;;;;;;;;;;;;5464912;26;19994;-83
2024/04/10 04:59:47;;;;;;;;;;;;;;;;;;5465599;26;20409;-83
2024/04/10 05:02:15;;;;;;;;;;;;;;;;;;5466911;26;19999;-82
2024/04/10 05:04:54;;;;;;;;;;;;;;;;;;5467092;26;20042;-82
2024/04/10 05:07:23;;;;;;;;;;;;;;;;;;5463832;26;19998;-84
2024/04/10 05:09:49;;;;;;;;;;;;;;;;;;5466270;26;20006;-81
2024/04/10 05:12:18;;;;;;;;;;;;;;;;;;5464119;26;20056;-82
2024/04/10 05:14:44;;;;;;;;;;;;;;;;;;5465567;26;20455;-82
2024/04/10 05:17:12;;;;;;;;;;;;;;;;;;5463242;26;20006;-82
2024/04/10 05:19:38;;;;;;;;;;;;;;;;;;5464405;26;20006;-82
2024/04/10 05:22:07;;;;;;;;;;;;;;;;;;5465275;26;20051;-82
2024/04/10 05:24:33;;;;;;;;;;;;;;;;;;5459871;26;20025;-83
2024/04/10 05:27:02;;;;;;;;;;;;;;;;;;5457151;26;20009;-83
2024/04/10 05:29:28;;;;;;;;;;;;;;;;;;5461016;26;20017;-86
2024/04/10 05:31:57;;;;;;;;;;;;;;;;;;5465208;26;20014;-84
2024/04/10 05:34:23;;;;;;;;;;;;;;;;;;5462902;26;20050;-82
2024/04/10 05:36:52;;;;;;;;;;;;;;;;;;5465876;26;20051;-81
2024/04/10 05:39:19;;;;;;;;;;;;;;;;;;5465710;26;20026;-82
2024/04/10 05:41:47;;;;;;;;;;;;;;;;;;5464932;26;20415;-82
2024/04/10 05:44:13;;;;;;;;;;;;;;;;;;5462410;26;20111;-85
2024/04/10 05:46:42;;;;;;;;;;;;;;;;;;5464387;26;20006;-87
2024/04/10 05:49:09;;;;;;;;;;;;;;;;;;5463052;26;19994;-86
2024/04/10 05:51:38;;;;;;;;;;;;;;;;;;5460982;26;20043;-83
2024/04/10 05:54:04;;;;;;;;;;;;;;;;;;5460090;26;20051;-83
2024/04/10 05:56:32;;;;;;;;;;;;;;;;;;5458780;26;19995;-83
2024/04/10 05:58:58;;;;;;;;;;;;;;;;;;5452774;26;20003;-82
2024/04/10 06:01:27;;;;;;;;;;;;;;;;;;5457618;26;20021;-83
2024/04/10 06:03:53;;;;;;;;;;;;;;;;;;5457549;26;19998;-83
2024/04/10 06:06:21;;;;;;;;;;;;;;;;;;5456438;26;20002;-83
2024/04/10 06:08:48;;;;;;;;;;;;;;;;;;5455670;26;20009;-82
2024/04/10 06:11:16;;;;;;;;;;;;;;;;;;5456688;26;20006;-82
2024/04/10 06:13:46;;;;;;;;;;;;;;;;;;5456170;26;20060;-82
2024/04/10 06:16:14;;;;;;;;;;;;;;;;;;5454845;26;19998;-79
2024/04/10 06:18:40;;;;;;;;;;;;;;;;;;5450197;26;20439;-81
2024/04/10 06:21:09;;;;;;;;;;;;;;;;;;5456888;26;20017;-80
2024/04/10 06:23:35;;;;;;;;;;;;;;;;;;5456846;26;20429;-80
2024/04/10 06:26:03;;;;;;;;;;;;;;;;;;5457301;26;20002;-82
2024/04/10 06:28:29;;;;;;;;;;;;;;;;;;5456999;26;19998;-82
2024/04/10 06:30:58;;;;;;;;;;;;;;;;;;5456761;26;19998;-82
2024/04/10 06:33:24;;;;;;;;;;;;;;;;;;5455657;26;20002;-84
2024/04/10 06:35:52;;;;;;;;;;;;;;;;;;5455595;26;20405;-82
2024/04/10 06:38:18;;;;;;;;;;;;;;;;;;5455291;26;20086;-84
2024/04/10 06:40:47;;;;;;;;;;;;;;;;;;5456372;26;20014;-83
2024/04/10 06:43:13;;;;;;;;;;;;;;;;;;5455830;26;19999;-82
2024/04/10 06:45:41;;;;;;;;;;;;;;;;;;5455596;26;20071;-82
2024/04/10 06:48:08;;;;;;;;;;;;;;;;;;5456241;26;20006;-82
2024/04/10 06:50:36;;;;;;;;;;;;;;;;;;5458369;26;20030;-81
2024/04/10 06:53:05;;;;;;;;;;;;;;;;;;5465262;26;19998;-80
2024/04/10 06:55:34;;;;;;;;;;;;;;;;;;5457741;26;20013;-82
2024/04/10 06:58:00;;;;;;;;;;;;;;;;;;5455612;26;20021;-82
2024/04/10 07:00:30;;;;;;;;;;;;;;;;;;5457040;26;20014;-82
2024/04/10 07:02:56;;;;;;;;;;;;;;;;;;5456948;26;20336;-81
2024/04/10 07:05:24;;;;;;;;;;;;;;;;;;5453090;26;20034;-82
2024/04/10 07:07:50;;;;;;;;;;;;;;;;;;5452973;26;20020;-82
2024/04/10 07:10:19;;;;;;;;;;;;;;;;;;5452630;26;19998;-81
2024/04/10 07:12:45;;;;;;;;;;;;;;;;;;5453459;26;20006;-82
2024/04/10 07:15:13;;;;;;;;;;;;;;;;;;5453381;26;20719;-82
2024/04/10 07:17:39;;;;;;;;;;;;;;;;;;5452052;26;20017;-84
2024/04/10 07:20:08;;;;;;;;;;;;;;;;;;5456176;26;19994;-81
2024/04/10 07:22:34;;;;;;;;;;;;;;;;;;5456963;26;19998;-81
2024/04/10 07:25:03;;;;;;;;;;;;;;;;;;5456277;26;20500;-82
2024/04/10 07:27:29;;;;;;;;;;;;;;;;;;5454711;26;19998;-83
2024/04/10 07:29:58;;;;;;;;;;;;;;;;;;5456300;26;20009;-82
2024/04/10 07:32:24;;;;;;;;;;;;;;;;;;5456309;26;20328;-82
2024/04/10 07:34:52;;;;;;;;;;;;;;;;;;5457364;26;20010;-81
2024/04/10 07:37:18;;;;;;;;;;;;;;;;;;5455822;26;20445;-81
2024/04/10 07:39:47;;;;;;;;;;;;;;;;;;5456992;26;20079;-81
2024/04/10 07:42:16;;;;;;;;;;;;;;;;;;5453582;26;20233;-81
2024/04/10 07:44:44;;;;;;;;;;;;;;;;;;5451837;26;20021;-82
2024/04/10 07:47:10;;;;;;;;;;;;;;;;;;5455659;26;20003;-81
2024/04/10 07:49:39;;;;;;;;;;;;;;;;;;5456273;26;20017;-81
2024/04/10 07:52:07;;;;;;;;;;;;;;;;;;5456818;26;20060;-82
2024/04/10 07:54:35;;;;;;;;;;;;;;;;;;5456305;26;19998;-80
2024/04/10 07:57:03;;;;;;;;;;;;;;;;;;5455380;26;19994;-81
2024/04/10 07:59:31;;;;;;;;;;;;;;;;;;5460356;26;20002;-83
2024/04/10 08:01:57;;;;;;;;;;;;;;;;;;5459393;26;20021;-82
2024/04/10 08:04:26;;;;;;;;;;;;;;;;;;5460385;26;20002;-82
2024/04/10 08:06:52;;;;;;;;;;;;;;;;;;5458493;26;20016;-82
2024/04/10 08:09:22;;;;;;;;;;;;;;;;;;5460498;26;19999;-82
2024/04/10 08:11:48;;;;;;;;;;;;;;;;;;5465013;26;20090;-82
2024/04/10 08:14:16;;;;;;;;;;;;;;;;;;5468921;26;20007;-81
2024/04/10 08:16:42;;;;;;;;;;;;;;;;;;5469809;26;19998;-81
2024/04/10 08:19:11;;;;;;;;;;;;;;;;;;5446218;26;20082;-81
2024/04/10 08:21:38;;;;;;;;;;;;;;;;;;5459769;26;19998;-84
2024/04/10 08:24:07;;;;;;;;;;;;;;;;;;5460510;26;20021;-82
2024/04/10 08:26:33;;;;;;;;;;;;;;;;;;5458671;26;20467;-81
2024/04/10 08:29:03;;;;;;;;;;;;;;;;;;5458965;26;19994;-83
2024/04/10 08:31:28;;;;;;;;;;;;;;;;;;5459066;26;20037;-82
2024/04/10 08:33:57;;;;;;;;;;;;;;;;;;5459357;26;20082;-83
2024/04/10 08:36:23;;;;;;;;;;;;;;;;;;5459618;26;20002;-82
2024/04/10 08:38:52;;;;;;;;;;;;;;;;;;5461090;26;19991;-82
2024/04/10 08:41:18;;;;;;;;;;;;;;;;;;5458938;26;19998;-82
2024/04/10 08:43:46;;;;;;;;;;;;;;;;;;5459293;26;20017;-82
2024/04/10 08:46:12;;;;;;;;;;;;;;;;;;5459590;26;20075;-83
2024/04/10 08:48:41;;;;;;;;;;;;;;;;;;5459243;26;20003;-82
2024/04/10 08:51:09;;;;;;;;;;;;;;;;;;5459117;26;20013;-82
2024/04/10 08:53:35;;;;;;;;;;;;;;;;;;5459591;26;19994;-82
2024/04/10 08:56:04;;;;;;;;;;;;;;;;;;5459702;26;20006;-82
2024/04/10 08:58:30;;;;;;;;;;;;;;;;;;5459531;26;20002;-81
2024/04/10 09:00:59;;;;;;;;;;;;;;;;;;5463430;26;20053;-82
2024/04/10 09:03:25;;;;;;;;;;;;;;;;;;5457047;26;19998;-81
2024/04/10 09:05:53;;;;;;;;;;;;;;;;;;5466164;26;20039;-81
2024/04/10 09:08:19;;;;;;;;;;;;;;;;;;5458715;26;20002;-81
2024/04/10 09:10:48;;;;;;;;;;;;;;;;;;5459430;26;19999;-81
2024/04/10 09:13:14;;;;;;;;;;;;;;;;;;5458811;26;20410;-81
2024/04/10 09:15:43;;;;;;;;;;;;;;;;;;5461324;26;19994;-82
2024/04/10 09:18:09;;;;;;;;;;;;;;;;;;5459964;26;19998;-80
2024/04/10 09:20:39;;;;;;;;;;;;;;;;;;5457727;26;20075;-82
2024/04/10 09:23:05;;;;;;;;;;;;;;;;;;5457309;26;20331;-81
2024/04/10 09:25:34;;;;;;;;;;;;;;;;;;5458535;26;20017;-81
2024/04/10 09:28:01;;;;;;;;;;;;;;;;;;5458210;26;20002;-81
2024/04/10 09:30:30;;;;;;;;;;;;;;;;;;5458493;26;20002;-81
2024/04/10 09:32:56;;;;;;;;;;;;;;;;;;5458070;26;20025;-81
2024/04/10 09:35:25;;;;;;;;;;;;;;;;;;5457599;26;20006;-81
2024/04/10 09:37:51;;;;;;;;;;;;;;;;;;5457967;26;19994;-81
2024/04/10 09:40:20;;;;;;;;;;;;;;;;;;5458616;26;20021;-81
2024/04/10 09:42:46;;;;;;;;;;;;;;;;;;5458626;26;20103;-81
2024/04/10 09:45:17;;;;;;;;;;;;;;;;;;5457838;26;20002;-81
2024/04/10 09:47:43;;;;;;;;;;;;;;;;;;5457669;26;19995;-81
2024/04/10 09:50:12;;;;;;;;;;;;;;;;;;5458612;26;19994;-80
2024/04/10 09:52:38;;;;;;;;;;;;;;;;;;5459530;26;19998;-81
2024/04/10 09:55:07;;;;;;;;;;;;;;;;;;5457746;26;20006;-82
2024/04/10 09:57:33;;;;;;;;;;;;;;;;;;5457804;26;20086;-82
2024/04/10 10:00:01;;;;;;;;;;;;;;;;;;5458757;26;20010;-82
2024/04/10 10:02:27;;;;;;;;;;;;;;;;;;5458623;26;20378;-81
2024/04/10 10:04:56;;;;;;;;;;;;;;;;;;5458497;26;19990;-81
2024/04/10 10:07:22;;;;;;;;;;;;;;;;;;5457400;26;20293;-81
2024/04/10 10:09:51;;;;;;;;;;;;;;;;;;5458500;26;19994;-81
2024/04/10 10:12:16;;;;;;;;;;;;;;;;;;5457473;26;20002;-80
2024/04/10 10:14:45;;;;;;;;;;;;;;;;;;5458267;26;20014;-81
2024/04/10 10:17:11;;;;;;;;;;;;;;;;;;5457434;26;19995;-81
2024/04/10 10:19:40;;;;;;;;;;;;;;;;;;5457774;26;20012;-82
2024/04/10 10:22:06;;;;;;;;;;;;;;;;;;5457667;26;20090;-82
2024/04/10 10:24:41;;;;;;;;;;;;;;;;;;5458622;26;20009;-80
2024/04/10 10:27:07;;;;;;;;;;;;;;;;;;5457186;26;20010;-82
2024/04/10 10:29:36;;;;;;;;;;;;;;;;;;5457918;26;19994;-82
2024/04/10 10:32:02;;;;;;;;;;;;;;;;;;5458375;26;19991;-81
2024/04/10 10:34:30;;;;;;;;;;;;;;;;;;5459369;26;20009;-82
2024/04/10 10:36:56;;;;;;;;;;;;;;;;;;5456906;26;20003;-82
2024/04/10 10:39:27;;;;;;;;;;;;;;;;;;5458072;26;20021;-81
2024/04/10 10:41:53;;;;;;;;;;;;;;;;;;5458389;26;20013;-82
2024/04/10 10:44:22;;;;;;;;;;;;;;;;;;5459210;26;19998;-83
2024/04/10 10:46:48;;;;;;;;;;;;;;;;;;5457205;26;19999;-81
2024/04/10 10:49:17;;;;;;;;;;;;;;;;;;5457469;26;19994;-82
2024/04/10 10:51:43;;;;;;;;;;;;;;;;;;5458065;26;20009;-83
2024/04/10 10:54:11;;;;;;;;;;;;;;;;;;5457344;26;19994;-81
2024/04/10 10:56:37;;;;;;;;;;;;;;;;;;5457225;26;20462;-82
2024/04/10 10:59:06;;;;;;;;;;;;;;;;;;5456633;26;19994;-80
2024/04/10 11:01:32;;;;;;;;;;;;;;;;;;5457714;26;20021;-80
2024/04/10 11:04:01;;;;;;;;;;;;;;;;;;5458403;26;20030;-80
2024/04/10 11:06:27;;;;;;;;;;;;;;;;;;5458740;26;19990;-82
2024/04/10 11:08:55;;;;;;;;;;;;;;;;;;5457269;26;20526;-80
2024/04/10 11:11:21;;;;;;;;;;;;;;;;;;5441525;26;20473;-81
2024/04/10 11:13:50;;;;;;;;;;;;;;;;;;5456992;26;19998;-82
2024/04/10 11:16:16;;;;;;;;;;;;;;;;;;5466447;26;20024;-80
2024/04/10 11:18:44;;;;;;;;;;;;;;;;;;5458361;26;19994;-82
2024/04/10 11:21:10;;;;;;;;;;;;;;;;;;5455560;26;19998;-81
2024/04/10 11:23:39;;;;;;;;;;;;;;;;;;5456829;26;20079;-81
2024/04/10 11:26:05;;;;;;;;;;;;;;;;;;5456722;26;20021;-80
2024/04/10 11:28:34;;;;;;;;;;;;;;;;;;5456783;26;19998;-81
2024/04/10 11:31:00;;;;;;;;;;;;;;;;;;5457199;26;20006;-80
2024/04/10 11:33:28;;;;;;;;;;;;;;;;;;5460168;26;20327;-81
2024/04/10 11:35:59;;;;;;;;;;;;;;;;;;5459552;26;19995;-81
2024/04/10 11:38:27;;;;;;;;;;;;;;;;;;5458953;26;20034;-82
2024/04/10 11:40:53;;;;;;;;;;;;;;;;;;5460901;26;20006;-82
2024/04/10 11:43:22;;;;;;;;;;;;;;;;;;5460693;26;20056;-82
2024/04/10 11:45:49;;;;;;;;;;;;;;;;;;5461762;26;20025;-81
2024/04/10 11:48:17;;;;;;;;;;;;;;;;;;5459566;26;20383;-82
2024/04/10 11:50:43;;;;;;;;;;;;;;;;;;5461056;26;20506;-83
2024/04/10 11:53:12;;;;;;;;;;;;;;;;;;5465890;26;19998;-81
2024/04/10 11:55:38;;;;;;;;;;;;;;;;;;5466198;26;20078;-81
2024/04/10 11:58:06;;;;;;;;;;;;;;;;;;5461534;26;20038;-81
2024/04/10 12:00:32;;;;;;;;;;;;;;;;;;5459770;26;20420;-81
2024/04/10 12:03:02;;;;;;;;;;;;;;;;;;5459290;26;20058;-81
2024/04/10 12:05:28;;;;;;;;;;;;;;;;;;5460965;26;20017;-81
2024/04/10 12:07:57;;;;;;;;;;;;;;;;;;5458127;26;19998;-81
2024/04/10 12:10:23;;;;;;;;;;;;;;;;;;5461193;26;20379;-80
2024/04/10 12:12:51;;;;;;;;;;;;;;;;;;5459635;26;20074;-82
2024/04/10 12:15:19;;;;;;;;;;;;;;;;;;5458811;26;20045;-80
2024/04/10 12:17:50;;;;;;;;;;;;;;;;;;5456960;26;20367;-80
2024/04/10 12:20:17;;;;;;;;;;;;;;;;;;5457064;26;20116;-80
2024/04/10 12:22:45;;;;;;;;;;;;;;;;;;5457792;26;20016;-80
2024/04/10 12:25:11;;;;;;;;;;;;;;;;;;5458203;26;25056;-81
2024/04/10 12:27:40;;;;;;;;;;;;;;;;;;5458607;26;20036;-83
2024/04/10 12:30:06;;;;;;;;;;;;;;;;;;5457962;26;20043;-82
2024/04/10 12:32:34;;;;;;;;;;;;;;;;;;5459552;26;20132;-82
2024/04/10 12:40:28;;;;;;;;;;;;;;;;;;5461212;26;20065;-82
2024/04/10 12:42:57;;;;;;;;;;;;;;;;;;5457797;26;20029;-81
2024/04/10 12:45:25;;;;;;;;;;;;;;;;;;5458767;26;20014;-79
2024/04/10 12:47:51;;;;;;;;;;;;;;;;;;5456353;26;20006;-80
2024/04/10 12:50:20;;;;;;;;;;;;;;;;;;5456776;26;20059;-80
2024/04/10 12:52:47;;;;;;;;;;;;;;;;;;5455956;26;20040;-79
2024/04/10 12:55:15;;;;;;;;;;;;;;;;;;5457397;26;19998;-80
2024/04/10 12:57:41;;;;;;;;;;;;;;;;;;5457380;26;25075;-80
2024/04/10 13:00:10;;;;;;;;;;;;;;;;;;5459279;26;20006;-80
2024/04/10 13:02:36;;;;;;;;;;;;;;;;;;5457257;26;20093;-79
2024/04/10 13:05:04;;;;;;;;;;;;;;;;;;5457875;26;19998;-79
2024/04/10 13:07:30;;;;;;;;;;;;;;;;;;5444292;26;20052;-81
2024/04/10 13:09:59;;;;;;;;;;;;;;;;;;5458531;26;20007;-81
2024/04/10 13:12:25;;;;;;;;;;;;;;;;;;5459940;26;20123;-82
2024/04/10 13:14:53;;;;;;;;;;;;;;;;;;5459769;26;20006;-80
2024/04/10 13:17:19;;;;;;;;;;;;;;;;;;5459538;26;20387;-82
2024/04/10 13:19:48;;;;;;;;;;;;;;;;;;5453458;26;20123;-80
2024/04/10 13:22:14;;;;;;;;;;;;;;;;;;5459303;26;20346;-81
2024/04/10 13:24:42;;;;;;;;;;;;;;;;;;5461609;26;20018;-81
2024/04/10 13:27:09;;;;;;;;;;;;;;;;;;5464531;26;20076;-79
2024/04/10 13:29:38;;;;;;;;;;;;;;;;;;5460124;26;19998;-81
2024/04/10 13:32:08;;;;;;;;;;;;;;;;;;5457627;26;20126;-79
2024/04/10 13:34:37;;;;;;;;;;;;;;;;;;5456743;26;20025;-80
2024/04/10 13:37:08;;;;;;;;;;;;;;;;;;5455130;26;20039;-80
2024/04/10 13:39:34;;;;;;;;;;;;;;;;;;5458461;26;19998;-80
2024/04/10 13:42:02;;;;;;;;;;;;;;;;;;5458458;26;20073;-82
2024/04/10 13:44:28;;;;;;;;;;;;;;;;;;5458025;26;19999;-81
2024/04/10 13:46:57;;;;;;;;;;;;;;;;;;5457419;26;19995;-80
2024/04/10 13:49:23;;;;;;;;;;;;;;;;;;5454857;26;20075;-80
2024/04/10 13:51:52;;;;;;;;;;;;;;;;;;5456941;26;20063;-81
2024/04/10 13:54:18;;;;;;;;;;;;;;;;;;5457583;26;20185;-81
2024/04/10 13:56:49;;;;;;;;;;;;;;;;;;5457706;26;20077;-81
2024/04/10 13:59:15;;;;;;;;;;;;;;;;;;5458815;26;20143;-81
2024/04/10 14:01:47;;;;;;;;;;;;;;;;;;5457460;26;20406;-81
2024/04/10 14:04:13;;;;;;;;;;;;;;;;;;5457802;26;20036;-80
2024/04/10 14:06:42;;;;;;;;;;;;;;;;;;5456702;26;20029;-80
2024/04/10 14:09:09;;;;;;;;;;;;;;;;;;5455351;26;20068;-81
2024/04/10 14:11:38;;;;;;;;;;;;;;;;;;5456377;26;20031;-80
2024/04/10 14:14:04;;;;;;;;;;;;;;;;;;5456766;26;20017;-84
2024/04/10 14:16:32;;;;;;;;;;;;;;;;;;5456894;26;20047;-82
2024/04/10 14:18:58;;;;;;;;;;;;;;;;;;5455736;26;20133;-80
2024/04/10 14:21:27;;;;;;;;;;;;;;;;;;5457355;26;20123;-81
2024/04/10 14:23:53;;;;;;;;;;;;;;;;;;5456854;26;20024;-81
2024/04/10 14:26:22;;;;;;;;;;;;;;;;;;5456675;26;19998;-82
2024/04/10 14:28:48;;;;;;;;;;;;;;;;;;5456518;26;20055;-81
2024/04/10 14:31:17;;;;;;;;;;;;;;;;;;5456993;26;25064;-82
2024/04/10 14:33:43;;;;;;;;;;;;;;;;;;5457456;26;20108;-82
2024/04/10 14:36:11;;;;;;;;;;;;;;;;;;5456086;26;20073;-81
2024/04/10 14:38:39;;;;;;;;;;;;;;;;;;5456259;26;20089;-81
2024/04/10 14:41:08;;;;;;;;;;;;;;;;;;5456992;26;20050;-81
2024/04/10 14:43:34;;;;;;;;;;;;;;;;;;5455613;26;20033;-80
2024/04/10 14:46:03;;;;;;;;;;;;;;;;;;5452497;26;20112;-80
2024/04/10 14:48:29;;;;;;;;;;;;;;;;;;5455957;26;20181;-80
2024/04/10 14:50:58;;;;;;;;;;;;;;;;;;5456838;26;25047;-82
2024/04/10 14:53:24;;;;;;;;;;;;;;;;;;5443010;26;20055;-81
2024/04/10 14:55:52;;;;;;;;;;;;;;;;;;5458431;26;20013;-81
2024/04/10 14:58:18;;;;;;;;;;;;;;;;;;5450813;26;20025;-81
2024/04/10 15:00:48;;;;;;;;;;;;;;;;;;5448688;26;19993;-81
2024/04/10 15:03:14;;;;;;;;;;;;;;;;;;5456680;26;20107;-80
2024/04/10 15:05:43;;;;;;;;;;;;;;;;;;5454173;26;20451;-80
2024/04/10 15:08:08;;;;;;;;;;;;;;;;;;5454157;26;19998;-80
2024/04/10 15:10:37;;;;;;;;;;;;;;;;;;5456335;26;20038;-80
2024/04/10 15:13:03;;;;;;;;;;;;;;;;;;5456346;26;19998;-81
2024/04/10 15:15:32;;;;;;;;;;;;;;;;;;5458685;26;20002;-81
2024/04/10 15:19:18;;;;;;;;;;;;;;;;;;5513750;25;20381;-81
2024/04/10 15:21:43;;;;;;;;;;;;;;;;;;5504736;25;20001;-81
2024/04/10 15:24:12;;;;;;;;;;;;;;;;;;5466048;26;20500;-80
2024/04/10 15:26:40;;;;;;;;;;;;;;;;;;5464200;26;20021;-80
2024/04/10 15:29:08;;;;;;;;;;;;;;;;;;5478462;26;20006;-80
2024/04/10 15:31:34;;;;;;;;;;;;;;;;;;5481721;26;20017;-80
2024/04/10 15:34:03;;;;;;;;;;;;;;;;;;5485023;26;19998;-80
2024/04/10 15:36:29;;;;;;;;;;;;;;;;;;5484282;26;20414;-80
2024/04/10 15:38:58;;;;;;;;;;;;;;;;;;5480430;26;20086;-80
2024/04/10 15:41:24;;;;;;;;;;;;;;;;;;5490506;26;20465;-81
2024/04/10 15:43:53;;;;;;;;;;;;;;;;;;5513045;25;20002;-82
2024/04/10 15:46:21;;;;;;;;;;;;;;;;;;5512146;25;20020;-80
2024/04/10 15:48:49;;;;;;;;;;;;;;;;;;5512712;25;20653;-81
2024/04/10 15:51:15;;;;;;;;;;;;;;;;;;5513338;25;19994;-83
2024/04/10 15:53:44;;;;;;;;;;;;;;;;;;5512359;25;19997;-81
2024/04/10 15:56:10;;;;;;;;;;;;;;;;;;5514894;26;19994;-81
2024/04/10 15:58:39;;;;;;;;;;;;;;;;;;5504824;25;19993;-81
2024/04/10 16:01:05;;;;;;;;;;;;;;;;;;5478726;25;20013;-83
2024/04/10 16:03:33;;;;;;;;;;;;;;;;;;5516457;25;20002;-83
2024/04/10 16:05:59;;;;;;;;;;;;;;;;;;5513854;25;20013;-82
2024/04/10 16:08:28;;;;;;;;;;;;;;;;;;5465401;25;20412;-82
2024/04/10 16:10:54;;;;;;;;;;;;;;;;;;5476122;26;20014;-81
2024/04/10 16:13:23;;;;;;;;;;;;;;;;;;5475278;26;19990;-81
2024/04/10 16:15:49;;;;;;;;;;;;;;;;;;5461872;26;19998;-81
2024/04/10 16:18:19;;;;;;;;;;;;;;;;;;5473033;26;19994;-81
2024/04/10 16:20:45;;;;;;;;;;;;;;;;;;5474606;26;19994;-81
2024/04/10 16:23:14;;;;;;;;;;;;;;;;;;5475111;26;20020;-81
2024/04/10 16:25:40;;;;;;;;;;;;;;;;;;5475322;26;19998;-82
2024/04/10 16:28:09;;;;;;;;;;;;;;;;;;5474540;26;19991;-81
2024/04/10 16:30:35;;;;;;;;;;;;;;;;;;5462063;26;20027;-81
2024/04/10 16:33:03;;;;;;;;;;;;;;;;;;5475170;26;20005;-81
2024/04/10 16:35:30;;;;;;;;;;;;;;;;;;5496972;26;20034;-81
2024/04/10 16:37:59;;;;;;;;;;;;;;;;;;5496243;26;20006;-81
2024/04/10 16:40:25;;;;;;;;;;;;;;;;;;5497960;26;20012;-81
2024/04/10 16:42:54;;;;;;;;;;;;;;;;;;5498295;26;19989;-81
2024/04/10 16:45:20;;;;;;;;;;;;;;;;;;5497907;26;20407;-82
2024/04/10 16:47:49;;;;;;;;;;;;;;;;;;5497469;26;20013;-81
2024/04/10 16:50:14;;;;;;;;;;;;;;;;;;5467192;26;19999;-81
2024/04/10 16:52:47;;;;;;;;;;;;;;;;;;5497058;26;20017;-81